sensor_id;sensor_type;location;lat;lon;timestamp;P1;durP1;ratioP1;P2;durP2;ratioP2
40675;SDS011;26359;48.750;9.314;2023-08-21T00:00:05;24.98;;;22.88;;
40675;SDS011;26359;48.750;9.314;2023-08-21T00:02:32;33.25;;;31.15;;
40675;SDS011;26359;48.750;9.314;2023-08-21T00:04:57;22.75;;;21.17;;
40675;SDS011;26359;48.750;9.314;2023-08-21T00:07:23;32.35;;;30.20;;
40675;SDS011;26359;48.750;9.314;2023-08-21T00:09:49;33.17;;;30.88;;
40675;SDS011;26359;48.750;9.314;2023-08-21T00:12:15;33.85;;;31.38;;
40675;SDS011;26359;48.750;9.314;2023-08-21T00:14:40;25.60;;;23.80;;
40675;SDS011;26359;48.750;9.314;2023-08-21T00:17:06;27.58;;;25.63;;
40675;SDS011;26359;48.750;9.314;2023-08-21T00:19:32;20.40;;;18.85;;
40675;SDS011;26359;48.750;9.314;2023-08-21T00:21:58;22.38;;;20.50;;
40675;SDS011;26359;48.750;9.314;2023-08-21T00:24:24;15.80;;;14.50;;
40675;SDS011;26359;48.750;9.314;2023-08-21T00:26:50;16.02;;;14.70;;
40675;SDS011;26359;48.750;9.314;2023-08-21T00:29:15;16.27;;;14.63;;
40675;SDS011;26359;48.750;9.314;2023-08-21T00:31:41;17.27;;;15.88;;
40675;SDS011;26359;48.750;9.314;2023-08-21T00:34:06;22.35;;;20.80;;
40675;SDS011;26359;48.750;9.314;2023-08-21T00:36:32;23.45;;;21.80;;
40675;SDS011;26359;48.750;9.314;2023-08-21T00:38:58;27.73;;;25.92;;
40675;SDS011;26359;48.750;9.314;2023-08-21T00:41:23;21.30;;;19.80;;
40675;SDS011;26359;48.750;9.314;2023-08-21T00:43:49;21.00;;;19.45;;
40675;SDS011;26359;48.750;9.314;2023-08-21T00:46:14;24.27;;;22.38;;
40675;SDS011;26359;48.750;9.314;2023-08-21T00:48:40;25.33;;;23.50;;
40675;SDS011;26359;48.750;9.314;2023-08-21T00:51:07;28.42;;;26.52;;
40675;SDS011;26359;48.750;9.314;2023-08-21T00:53:33;36.25;;;33.85;;
40675;SDS011;26359;48.750;9.314;2023-08-21T00:55:59;33.92;;;31.40;;
40675;SDS011;26359;48.750;9.314;2023-08-21T00:58:25;34.10;;;31.70;;
40675;SDS011;26359;48.750;9.314;2023-08-21T01:00:50;27.95;;;26.05;;
40675;SDS011;26359;48.750;9.314;2023-08-21T01:03:17;23.48;;;21.75;;
40675;SDS011;26359;48.750;9.314;2023-08-21T01:05:43;20.67;;;19.08;;
40675;SDS011;26359;48.750;9.314;2023-08-21T01:08:17;20.13;;;18.73;;
40675;SDS011;26359;48.750;9.314;2023-08-21T01:10:56;17.50;;;16.10;;
40675;SDS011;26359;48.750;9.314;2023-08-21T01:16:20;19.35;;;17.73;;
40675;SDS011;26359;48.750;9.314;2023-08-21T01:18:47;20.38;;;18.75;;
40675;SDS011;26359;48.750;9.314;2023-08-21T01:21:13;22.70;;;21.10;;
40675;SDS011;26359;48.750;9.314;2023-08-21T01:23:40;24.75;;;22.95;;
40675;SDS011;26359;48.750;9.314;2023-08-21T01:26:09;24.75;;;22.80;;
40675;SDS011;26359;48.750;9.314;2023-08-21T01:28:34;19.35;;;17.75;;
40675;SDS011;26359;48.750;9.314;2023-08-21T01:31:08;16.85;;;15.40;;
40675;SDS011;26359;48.750;9.314;2023-08-21T01:33:35;15.77;;;14.40;;
40675;SDS011;26359;48.750;9.314;2023-08-21T01:36:07;18.98;;;17.45;;
40675;SDS011;26359;48.750;9.314;2023-08-21T01:38:33;20.92;;;19.33;;
40675;SDS011;26359;48.750;9.314;2023-08-21T01:41:00;22.02;;;20.30;;
40675;SDS011;26359;48.750;9.314;2023-08-21T01:43:26;20.02;;;18.38;;
40675;SDS011;26359;48.750;9.314;2023-08-21T01:45:51;28.52;;;26.45;;
40675;SDS011;26359;48.750;9.314;2023-08-21T01:48:17;46.63;;;43.53;;
40675;SDS011;26359;48.750;9.314;2023-08-21T01:50:42;27.25;;;25.40;;
40675;SDS011;26359;48.750;9.314;2023-08-21T01:53:08;29.15;;;26.90;;
40675;SDS011;26359;48.750;9.314;2023-08-21T01:55:33;24.42;;;22.63;;
40675;SDS011;26359;48.750;9.314;2023-08-21T01:57:59;23.08;;;21.27;;
40675;SDS011;26359;48.750;9.314;2023-08-21T02:00:24;21.95;;;20.30;;
40675;SDS011;26359;48.750;9.314;2023-08-21T02:02:50;21.73;;;20.00;;
40675;SDS011;26359;48.750;9.314;2023-08-21T02:05:15;19.63;;;17.83;;
40675;SDS011;26359;48.750;9.314;2023-08-21T02:07:41;18.73;;;17.17;;
40675;SDS011;26359;48.750;9.314;2023-08-21T02:10:07;16.80;;;15.25;;
40675;SDS011;26359;48.750;9.314;2023-08-21T02:12:33;21.30;;;19.65;;
40675;SDS011;26359;48.750;9.314;2023-08-21T02:14:58;20.13;;;18.60;;
40675;SDS011;26359;48.750;9.314;2023-08-21T02:17:26;18.83;;;17.30;;
40675;SDS011;26359;48.750;9.314;2023-08-21T02:19:51;17.85;;;16.45;;
40675;SDS011;26359;48.750;9.314;2023-08-21T02:22:17;18.13;;;16.73;;
40675;SDS011;26359;48.750;9.314;2023-08-21T02:24:43;18.65;;;17.15;;
40675;SDS011;26359;48.750;9.314;2023-08-21T02:27:08;18.98;;;17.38;;
40675;SDS011;26359;48.750;9.314;2023-08-21T02:29:34;15.40;;;14.18;;
40675;SDS011;26359;48.750;9.314;2023-08-21T02:31:59;15.15;;;13.65;;
40675;SDS011;26359;48.750;9.314;2023-08-21T02:34:25;13.20;;;12.15;;
40675;SDS011;26359;48.750;9.314;2023-08-21T02:36:51;13.20;;;12.15;;
40675;SDS011;26359;48.750;9.314;2023-08-21T02:39:17;14.88;;;13.60;;
40675;SDS011;26359;48.750;9.314;2023-08-21T02:41:42;14.85;;;13.48;;
40675;SDS011;26359;48.750;9.314;2023-08-21T02:44:08;15.18;;;13.80;;
40675;SDS011;26359;48.750;9.314;2023-08-21T02:46:33;13.02;;;11.85;;
40675;SDS011;26359;48.750;9.314;2023-08-21T02:49:01;13.35;;;12.15;;
40675;SDS011;26359;48.750;9.314;2023-08-21T02:51:26;13.88;;;12.63;;
40675;SDS011;26359;48.750;9.314;2023-08-21T02:53:52;15.27;;;13.85;;
40675;SDS011;26359;48.750;9.314;2023-08-21T02:56:18;16.02;;;14.00;;
40675;SDS011;26359;48.750;9.314;2023-08-21T02:58:43;13.85;;;12.73;;
40675;SDS011;26359;48.750;9.314;2023-08-21T03:01:09;16.17;;;14.82;;
40675;SDS011;26359;48.750;9.314;2023-08-21T03:03:35;14.25;;;12.93;;
40675;SDS011;26359;48.750;9.314;2023-08-21T03:06:01;15.65;;;14.15;;
40675;SDS011;26359;48.750;9.314;2023-08-21T03:08:27;18.10;;;16.60;;
40675;SDS011;26359;48.750;9.314;2023-08-21T03:10:52;14.57;;;12.73;;
40675;SDS011;26359;48.750;9.314;2023-08-21T03:13:18;14.45;;;13.15;;
40675;SDS011;26359;48.750;9.314;2023-08-21T03:15:43;15.60;;;14.10;;
40675;SDS011;26359;48.750;9.314;2023-08-21T03:18:10;18.00;;;16.33;;
40675;SDS011;26359;48.750;9.314;2023-08-21T03:20:35;17.92;;;16.35;;
40675;SDS011;26359;48.750;9.314;2023-08-21T03:23:01;15.50;;;13.90;;
40675;SDS011;26359;48.750;9.314;2023-08-21T03:25:27;15.35;;;13.88;;
40675;SDS011;26359;48.750;9.314;2023-08-21T03:27:52;18.73;;;17.13;;
40675;SDS011;26359;48.750;9.314;2023-08-21T03:30:18;16.77;;;15.38;;
40675;SDS011;26359;48.750;9.314;2023-08-21T03:32:44;18.52;;;16.85;;
40675;SDS011;26359;48.750;9.314;2023-08-21T03:35:10;21.08;;;19.45;;
40675;SDS011;26359;48.750;9.314;2023-08-21T03:37:36;16.80;;;15.40;;
40675;SDS011;26359;48.750;9.314;2023-08-21T03:40:05;19.23;;;17.63;;
40675;SDS011;26359;48.750;9.314;2023-08-21T03:42:31;16.77;;;15.38;;
40675;SDS011;26359;48.750;9.314;2023-08-21T03:44:57;16.25;;;14.85;;
40675;SDS011;26359;48.750;9.314;2023-08-21T03:47:22;16.58;;;15.00;;
40675;SDS011;26359;48.750;9.314;2023-08-21T03:49:48;15.73;;;14.43;;
40675;SDS011;26359;48.750;9.314;2023-08-21T03:52:13;16.65;;;14.15;;
40675;SDS011;26359;48.750;9.314;2023-08-21T03:54:39;16.02;;;14.82;;
40675;SDS011;26359;48.750;9.314;2023-08-21T03:57:05;19.42;;;17.63;;
40675;SDS011;26359;48.750;9.314;2023-08-21T03:59:30;16.52;;;15.10;;
40675;SDS011;26359;48.750;9.314;2023-08-21T04:01:56;16.60;;;15.13;;
40675;SDS011;26359;48.750;9.314;2023-08-21T04:04:21;16.70;;;15.13;;
40675;SDS011;26359;48.750;9.314;2023-08-21T04:06:47;18.02;;;16.40;;
40675;SDS011;26359;48.750;9.314;2023-08-21T04:09:12;17.83;;;16.40;;
40675;SDS011;26359;48.750;9.314;2023-08-21T04:11:38;18.70;;;17.13;;
40675;SDS011;26359;48.750;9.314;2023-08-21T04:14:03;19.27;;;16.98;;
40675;SDS011;26359;48.750;9.314;2023-08-21T04:16:29;16.75;;;15.15;;
40675;SDS011;26359;48.750;9.314;2023-08-21T04:18:55;17.80;;;16.40;;
40675;SDS011;26359;48.750;9.314;2023-08-21T04:21:21;19.48;;;17.85;;
40675;SDS011;26359;48.750;9.314;2023-08-21T04:23:47;18.85;;;17.27;;
40675;SDS011;26359;48.750;9.314;2023-08-21T04:26:13;19.90;;;18.17;;
40675;SDS011;26359;48.750;9.314;2023-08-21T04:28:38;18.60;;;17.13;;
40675;SDS011;26359;48.750;9.314;2023-08-21T04:31:04;23.85;;;21.85;;
40675;SDS011;26359;48.750;9.314;2023-08-21T04:33:31;18.30;;;16.67;;
40675;SDS011;26359;48.750;9.314;2023-08-21T04:35:57;24.23;;;22.25;;
40675;SDS011;26359;48.750;9.314;2023-08-21T04:38:23;17.15;;;15.68;;
40675;SDS011;26359;48.750;9.314;2023-08-21T04:40:48;18.58;;;17.08;;
40675;SDS011;26359;48.750;9.314;2023-08-21T04:43:14;14.40;;;13.20;;
40675;SDS011;26359;48.750;9.314;2023-08-21T04:45:52;17.77;;;16.23;;
40675;SDS011;26359;48.750;9.314;2023-08-21T04:48:18;23.15;;;21.35;;
40675;SDS011;26359;48.750;9.314;2023-08-21T04:50:44;23.27;;;21.17;;
40675;SDS011;26359;48.750;9.314;2023-08-21T04:53:10;22.35;;;20.35;;
40675;SDS011;26359;48.750;9.314;2023-08-21T04:55:36;22.05;;;20.00;;
40675;SDS011;26359;48.750;9.314;2023-08-21T04:58:02;18.30;;;16.60;;
40675;SDS011;26359;48.750;9.314;2023-08-21T05:00:28;23.30;;;21.23;;
40675;SDS011;26359;48.750;9.314;2023-08-21T05:02:54;24.13;;;22.17;;
40675;SDS011;26359;48.750;9.314;2023-08-21T05:05:19;34.47;;;31.77;;
40675;SDS011;26359;48.750;9.314;2023-08-21T05:07:45;36.03;;;33.42;;
40675;SDS011;26359;48.750;9.314;2023-08-21T05:10:11;26.77;;;24.48;;
40675;SDS011;26359;48.750;9.314;2023-08-21T05:12:36;24.70;;;22.40;;
40675;SDS011;26359;48.750;9.314;2023-08-21T05:15:02;21.33;;;19.55;;
40675;SDS011;26359;48.750;9.314;2023-08-21T05:17:28;25.10;;;23.05;;
40675;SDS011;26359;48.750;9.314;2023-08-21T05:19:54;23.75;;;21.70;;
40675;SDS011;26359;48.750;9.314;2023-08-21T05:22:20;19.30;;;17.80;;
40675;SDS011;26359;48.750;9.314;2023-08-21T05:24:45;22.25;;;20.30;;
40675;SDS011;26359;48.750;9.314;2023-08-21T05:27:11;24.05;;;21.65;;
40675;SDS011;26359;48.750;9.314;2023-08-21T05:29:36;26.77;;;24.33;;
40675;SDS011;26359;48.750;9.314;2023-08-21T05:32:02;23.35;;;21.08;;
40675;SDS011;26359;48.750;9.314;2023-08-21T05:34:27;20.23;;;18.45;;
40675;SDS011;26359;48.750;9.314;2023-08-21T05:36:53;24.60;;;22.70;;
40675;SDS011;26359;48.750;9.314;2023-08-21T05:39:19;21.25;;;19.40;;
40675;SDS011;26359;48.750;9.314;2023-08-21T05:41:45;20.05;;;18.27;;
40675;SDS011;26359;48.750;9.314;2023-08-21T05:44:11;20.67;;;18.63;;
40675;SDS011;26359;48.750;9.314;2023-08-21T05:46:36;20.33;;;18.33;;
40675;SDS011;26359;48.750;9.314;2023-08-21T05:49:03;18.33;;;16.67;;
40675;SDS011;26359;48.750;9.314;2023-08-21T05:51:28;22.33;;;20.63;;
40675;SDS011;26359;48.750;9.314;2023-08-21T05:53:54;23.30;;;21.13;;
40675;SDS011;26359;48.750;9.314;2023-08-21T05:56:19;23.42;;;21.73;;
40675;SDS011;26359;48.750;9.314;2023-08-21T05:58:45;22.17;;;20.30;;
40675;SDS011;26359;48.750;9.314;2023-08-21T06:01:11;24.90;;;22.60;;
40675;SDS011;26359;48.750;9.314;2023-08-21T06:03:37;22.90;;;20.88;;
40675;SDS011;26359;48.750;9.314;2023-08-21T06:06:02;20.88;;;18.67;;
40675;SDS011;26359;48.750;9.314;2023-08-21T06:08:28;19.35;;;17.67;;
40675;SDS011;26359;48.750;9.314;2023-08-21T06:10:53;20.70;;;18.80;;
40675;SDS011;26359;48.750;9.314;2023-08-21T06:13:19;20.60;;;18.70;;
40675;SDS011;26359;48.750;9.314;2023-08-21T06:15:44;20.58;;;18.75;;
40675;SDS011;26359;48.750;9.314;2023-08-21T06:18:10;18.75;;;16.95;;
40675;SDS011;26359;48.750;9.314;2023-08-21T06:20:36;16.83;;;15.18;;
40675;SDS011;26359;48.750;9.314;2023-08-21T06:23:02;17.17;;;15.55;;
40675;SDS011;26359;48.750;9.314;2023-08-21T06:25:27;18.10;;;14.55;;
40675;SDS011;26359;48.750;9.314;2023-08-21T06:27:55;16.60;;;14.95;;
40675;SDS011;26359;48.750;9.314;2023-08-21T06:30:21;18.38;;;16.67;;
40675;SDS011;26359;48.750;9.314;2023-08-21T06:32:46;22.08;;;19.98;;
40675;SDS011;26359;48.750;9.314;2023-08-21T06:35:12;22.63;;;20.45;;
40675;SDS011;26359;48.750;9.314;2023-08-21T06:37:38;17.42;;;15.88;;
40675;SDS011;26359;48.750;9.314;2023-08-21T06:40:04;33.50;;;30.60;;
40675;SDS011;26359;48.750;9.314;2023-08-21T06:42:31;35.78;;;33.13;;
40675;SDS011;26359;48.750;9.314;2023-08-21T06:44:57;20.15;;;18.40;;
40675;SDS011;26359;48.750;9.314;2023-08-21T06:47:22;17.30;;;15.80;;
40675;SDS011;26359;48.750;9.314;2023-08-21T06:49:48;18.92;;;17.23;;
40675;SDS011;26359;48.750;9.314;2023-08-21T06:52:14;18.77;;;16.88;;
40675;SDS011;26359;48.750;9.314;2023-08-21T06:54:39;19.35;;;17.38;;
40675;SDS011;26359;48.750;9.314;2023-08-21T06:57:05;18.63;;;17.10;;
40675;SDS011;26359;48.750;9.314;2023-08-21T06:59:30;18.23;;;16.48;;
40675;SDS011;26359;48.750;9.314;2023-08-21T07:02:00;18.33;;;16.65;;
40675;SDS011;26359;48.750;9.314;2023-08-21T07:04:29;20.33;;;18.42;;
40675;SDS011;26359;48.750;9.314;2023-08-21T07:06:54;20.85;;;19.00;;
40675;SDS011;26359;48.750;9.314;2023-08-21T07:09:20;20.27;;;18.38;;
40675;SDS011;26359;48.750;9.314;2023-08-21T07:11:45;20.67;;;18.95;;
40675;SDS011;26359;48.750;9.314;2023-08-21T07:14:11;26.20;;;24.20;;
40675;SDS011;26359;48.750;9.314;2023-08-21T07:16:38;22.98;;;20.67;;
40675;SDS011;26359;48.750;9.314;2023-08-21T07:19:04;44.40;;;41.30;;
40675;SDS011;26359;48.750;9.314;2023-08-21T07:21:30;27.10;;;24.77;;
40675;SDS011;26359;48.750;9.314;2023-08-21T07:23:55;22.10;;;20.13;;
40675;SDS011;26359;48.750;9.314;2023-08-21T07:26:21;23.52;;;21.65;;
40675;SDS011;26359;48.750;9.314;2023-08-21T07:28:46;18.83;;;16.98;;
40675;SDS011;26359;48.750;9.314;2023-08-21T07:31:12;16.92;;;14.95;;
40675;SDS011;26359;48.750;9.314;2023-08-21T07:33:37;21.40;;;19.63;;
40675;SDS011;26359;48.750;9.314;2023-08-21T07:36:04;24.70;;;22.85;;
40675;SDS011;26359;48.750;9.314;2023-08-21T07:38:30;24.27;;;22.42;;
40675;SDS011;26359;48.750;9.314;2023-08-21T07:41:03;26.05;;;23.52;;
40675;SDS011;26359;48.750;9.314;2023-08-21T07:43:34;21.75;;;19.98;;
40675;SDS011;26359;48.750;9.314;2023-08-21T07:46:08;20.63;;;18.83;;
40675;SDS011;26359;48.750;9.314;2023-08-21T07:48:36;17.20;;;14.55;;
40675;SDS011;26359;48.750;9.314;2023-08-21T07:51:01;27.00;;;24.77;;
40675;SDS011;26359;48.750;9.314;2023-08-21T07:53:27;30.10;;;27.40;;
40675;SDS011;26359;48.750;9.314;2023-08-21T07:55:53;22.50;;;20.55;;
40675;SDS011;26359;48.750;9.314;2023-08-21T07:58:18;39.97;;;37.00;;
40675;SDS011;26359;48.750;9.314;2023-08-21T08:00:44;38.70;;;36.08;;
40675;SDS011;26359;48.750;9.314;2023-08-21T08:03:10;22.58;;;20.67;;
40675;SDS011;26359;48.750;9.314;2023-08-21T08:05:36;17.15;;;15.52;;
40675;SDS011;26359;48.750;9.314;2023-08-21T08:08:02;22.20;;;20.48;;
40675;SDS011;26359;48.750;9.314;2023-08-21T08:10:28;22.02;;;20.33;;
40675;SDS011;26359;48.750;9.314;2023-08-21T08:12:54;23.48;;;21.52;;
40675;SDS011;26359;48.750;9.314;2023-08-21T08:15:20;20.23;;;18.35;;
40675;SDS011;26359;48.750;9.314;2023-08-21T08:17:46;30.42;;;28.27;;
40675;SDS011;26359;48.750;9.314;2023-08-21T08:20:12;18.30;;;16.55;;
40675;SDS011;26359;48.750;9.314;2023-08-21T08:22:39;20.58;;;18.95;;
40675;SDS011;26359;48.750;9.314;2023-08-21T08:25:05;19.92;;;18.33;;
40675;SDS011;26359;48.750;9.314;2023-08-21T08:27:31;19.42;;;17.60;;
40675;SDS011;26359;48.750;9.314;2023-08-21T08:29:57;20.67;;;17.98;;
40675;SDS011;26359;48.750;9.314;2023-08-21T08:32:23;22.77;;;21.08;;
40675;SDS011;26359;48.750;9.314;2023-08-21T08:34:48;23.08;;;21.20;;
40675;SDS011;26359;48.750;9.314;2023-08-21T08:37:14;48.95;;;45.75;;
40675;SDS011;26359;48.750;9.314;2023-08-21T08:39:39;45.88;;;42.90;;
40675;SDS011;26359;48.750;9.314;2023-08-21T08:42:05;28.48;;;26.38;;
40675;SDS011;26359;48.750;9.314;2023-08-21T08:44:33;38.92;;;36.47;;
40675;SDS011;26359;48.750;9.314;2023-08-21T08:47:02;29.08;;;27.17;;
40675;SDS011;26359;48.750;9.314;2023-08-21T08:49:28;29.83;;;27.85;;
40675;SDS011;26359;48.750;9.314;2023-08-21T08:51:55;50.05;;;46.72;;
40675;SDS011;26359;48.750;9.314;2023-08-21T08:54:22;78.70;;;73.95;;
40675;SDS011;26359;48.750;9.314;2023-08-21T08:56:47;69.55;;;65.47;;
40675;SDS011;26359;48.750;9.314;2023-08-21T08:59:13;32.20;;;29.55;;
40675;SDS011;26359;48.750;9.314;2023-08-21T09:01:40;65.15;;;61.40;;
40675;SDS011;26359;48.750;9.314;2023-08-21T09:04:06;33.28;;;30.75;;
40675;SDS011;26359;48.750;9.314;2023-08-21T09:06:32;57.33;;;53.90;;
40675;SDS011;26359;48.750;9.314;2023-08-21T09:08:59;33.30;;;30.77;;
40675;SDS011;26359;48.750;9.314;2023-08-21T09:11:25;18.52;;;16.83;;
40675;SDS011;26359;48.750;9.314;2023-08-21T09:13:51;19.60;;;17.92;;
40675;SDS011;26359;48.750;9.314;2023-08-21T09:16:19;17.75;;;16.15;;
40675;SDS011;26359;48.750;9.314;2023-08-21T09:18:49;23.65;;;21.58;;
40675;SDS011;26359;48.750;9.314;2023-08-21T09:21:16;24.23;;;22.35;;
40675;SDS011;26359;48.750;9.314;2023-08-21T09:23:45;19.70;;;17.98;;
40675;SDS011;26359;48.750;9.314;2023-08-21T09:26:20;27.38;;;25.13;;
40675;SDS011;26359;48.750;9.314;2023-08-21T09:28:50;28.30;;;26.13;;
40675;SDS011;26359;48.750;9.314;2023-08-21T09:31:37;29.45;;;27.15;;
40675;SDS011;26359;48.750;9.314;2023-08-21T09:34:03;16.35;;;14.85;;
40675;SDS011;26359;48.750;9.314;2023-08-21T09:36:32;17.38;;;15.98;;
40675;SDS011;26359;48.750;9.314;2023-08-21T09:38:59;25.38;;;23.75;;
40675;SDS011;26359;48.750;9.314;2023-08-21T09:41:25;26.58;;;24.75;;
40675;SDS011;26359;48.750;9.314;2023-08-21T09:43:51;19.25;;;17.70;;
40675;SDS011;26359;48.750;9.314;2023-08-21T09:46:17;16.23;;;15.07;;
40675;SDS011;26359;48.750;9.314;2023-08-21T09:48:48;17.02;;;15.73;;
40675;SDS011;26359;48.750;9.314;2023-08-21T09:51:16;10.50;;;8.77;;
40675;SDS011;26359;48.750;9.314;2023-08-21T09:53:42;11.55;;;10.52;;
40675;SDS011;26359;48.750;9.314;2023-08-21T09:56:07;12.48;;;11.38;;
40675;SDS011;26359;48.750;9.314;2023-08-21T09:58:34;15.85;;;14.40;;
40675;SDS011;26359;48.750;9.314;2023-08-21T10:01:04;12.95;;;11.60;;
40675;SDS011;26359;48.750;9.314;2023-08-21T10:06:05;12.93;;;11.63;;
40675;SDS011;26359;48.750;9.314;2023-08-21T10:08:33;9.60;;;8.60;;
40675;SDS011;26359;48.750;9.314;2023-08-21T10:11:04;13.93;;;12.70;;
40675;SDS011;26359;48.750;9.314;2023-08-21T10:13:32;14.32;;;12.73;;
40675;SDS011;26359;48.750;9.314;2023-08-21T10:15:58;12.50;;;11.50;;
40675;SDS011;26359;48.750;9.314;2023-08-21T10:18:29;12.25;;;11.15;;
40675;SDS011;26359;48.750;9.314;2023-08-21T10:20:58;13.13;;;12.02;;
40675;SDS011;26359;48.750;9.314;2023-08-21T10:23:36;20.13;;;18.80;;
40675;SDS011;26359;48.750;9.314;2023-08-21T10:26:05;17.05;;;15.70;;
40675;SDS011;26359;48.750;9.314;2023-08-21T10:31:27;17.00;;;15.63;;
40675;SDS011;26359;48.750;9.314;2023-08-21T10:33:54;10.40;;;9.40;;
40675;SDS011;26359;48.750;9.314;2023-08-21T10:39:23;13.02;;;11.85;;
40675;SDS011;26359;48.750;9.314;2023-08-21T10:44:34;15.65;;;14.48;;
40675;SDS011;26359;48.750;9.314;2023-08-21T10:49:40;12.82;;;11.57;;
40675;SDS011;26359;48.750;9.314;2023-08-21T10:52:06;18.38;;;17.08;;
40675;SDS011;26359;48.750;9.314;2023-08-21T11:04:09;14.25;;;13.00;;
40675;SDS011;26359;48.750;9.314;2023-08-21T11:06:36;12.93;;;11.65;;
40675;SDS011;26359;48.750;9.314;2023-08-21T11:09:02;13.35;;;12.25;;
40675;SDS011;26359;48.750;9.314;2023-08-21T11:11:29;15.40;;;14.07;;
40675;SDS011;26359;48.750;9.314;2023-08-21T11:13:55;13.50;;;10.82;;
40675;SDS011;26359;48.750;9.314;2023-08-21T11:16:20;11.60;;;10.27;;
40675;SDS011;26359;48.750;9.314;2023-08-21T11:18:46;13.13;;;11.80;;
40675;SDS011;26359;48.750;9.314;2023-08-21T11:21:12;10.95;;;9.93;;
40675;SDS011;26359;48.750;9.314;2023-08-21T11:23:38;10.75;;;9.93;;
40675;SDS011;26359;48.750;9.314;2023-08-21T11:26:06;9.77;;;8.98;;
40675;SDS011;26359;48.750;9.314;2023-08-21T11:28:35;10.43;;;9.52;;
40675;SDS011;26359;48.750;9.314;2023-08-21T11:31:01;18.40;;;17.00;;
40675;SDS011;26359;48.750;9.314;2023-08-21T11:33:27;13.82;;;12.77;;
40675;SDS011;26359;48.750;9.314;2023-08-21T11:35:53;36.45;;;34.22;;
40675;SDS011;26359;48.750;9.314;2023-08-21T11:38:20;26.95;;;25.05;;
40675;SDS011;26359;48.750;9.314;2023-08-21T11:43:19;32.83;;;30.67;;
40675;SDS011;26359;48.750;9.314;2023-08-21T11:45:47;18.35;;;16.80;;
40675;SDS011;26359;48.750;9.314;2023-08-21T11:48:14;33.45;;;31.13;;
40675;SDS011;26359;48.750;9.314;2023-08-21T11:50:39;39.10;;;36.58;;
40675;SDS011;26359;48.750;9.314;2023-08-21T11:53:05;33.13;;;31.05;;
40675;SDS011;26359;48.750;9.314;2023-08-21T11:55:30;46.08;;;43.30;;
40675;SDS011;26359;48.750;9.314;2023-08-21T11:57:56;33.13;;;30.83;;
40675;SDS011;26359;48.750;9.314;2023-08-21T12:00:26;39.78;;;37.42;;
40675;SDS011;26359;48.750;9.314;2023-08-21T12:03:00;31.05;;;28.75;;
40675;SDS011;26359;48.750;9.314;2023-08-21T12:05:28;58.40;;;54.97;;
40675;SDS011;26359;48.750;9.314;2023-08-21T12:07:54;36.17;;;33.83;;
40675;SDS011;26359;48.750;9.314;2023-08-21T12:10:27;18.55;;;16.80;;
40675;SDS011;26359;48.750;9.314;2023-08-21T12:12:53;16.15;;;14.52;;
40675;SDS011;26359;48.750;9.314;2023-08-21T12:15:19;29.42;;;27.35;;
40675;SDS011;26359;48.750;9.314;2023-08-21T12:17:45;15.52;;;14.20;;
40675;SDS011;26359;48.750;9.314;2023-08-21T12:20:11;26.00;;;24.00;;
40675;SDS011;26359;48.750;9.314;2023-08-21T12:22:40;12.43;;;11.32;;
40675;SDS011;26359;48.750;9.314;2023-08-21T12:25:07;13.73;;;12.43;;
40675;SDS011;26359;48.750;9.314;2023-08-21T12:27:33;17.10;;;15.82;;
40675;SDS011;26359;48.750;9.314;2023-08-21T12:29:59;14.15;;;13.05;;
40675;SDS011;26359;48.750;9.314;2023-08-21T12:32:25;14.68;;;13.30;;
40675;SDS011;26359;48.750;9.314;2023-08-21T12:34:50;13.90;;;12.70;;
40675;SDS011;26359;48.750;9.314;2023-08-21T12:37:17;13.50;;;12.30;;
40675;SDS011;26359;48.750;9.314;2023-08-21T12:39:42;12.57;;;11.45;;
40675;SDS011;26359;48.750;9.314;2023-08-21T12:42:08;13.73;;;12.60;;
40675;SDS011;26359;48.750;9.314;2023-08-21T12:44:34;13.88;;;12.55;;
40675;SDS011;26359;48.750;9.314;2023-08-21T12:46:59;14.00;;;12.90;;
40675;SDS011;26359;48.750;9.314;2023-08-21T12:49:25;16.45;;;15.23;;
40675;SDS011;26359;48.750;9.314;2023-08-21T12:51:51;14.07;;;12.93;;
40675;SDS011;26359;48.750;9.314;2023-08-21T12:54:16;15.48;;;14.25;;
40675;SDS011;26359;48.750;9.314;2023-08-21T12:56:42;16.05;;;13.15;;
40675;SDS011;26359;48.750;9.314;2023-08-21T12:59:07;12.50;;;10.25;;
40675;SDS011;26359;48.750;9.314;2023-08-21T13:01:33;12.40;;;11.30;;
40675;SDS011;26359;48.750;9.314;2023-08-21T13:03:59;13.85;;;12.73;;
40675;SDS011;26359;48.750;9.314;2023-08-21T13:06:25;15.55;;;14.20;;
40675;SDS011;26359;48.750;9.314;2023-08-21T13:08:51;17.98;;;16.67;;
40675;SDS011;26359;48.750;9.314;2023-08-21T13:11:17;16.02;;;14.68;;
40675;SDS011;26359;48.750;9.314;2023-08-21T13:13:42;16.27;;;14.98;;
40675;SDS011;26359;48.750;9.314;2023-08-21T13:16:08;16.45;;;15.13;;
40675;SDS011;26359;48.750;9.314;2023-08-21T13:18:33;15.43;;;14.02;;
40675;SDS011;26359;48.750;9.314;2023-08-21T13:20:59;12.85;;;11.82;;
40675;SDS011;26359;48.750;9.314;2023-08-21T13:23:24;16.75;;;15.57;;
40675;SDS011;26359;48.750;9.314;2023-08-21T13:25:50;10.88;;;9.77;;
40675;SDS011;26359;48.750;9.314;2023-08-21T13:28:16;11.30;;;10.40;;
40675;SDS011;26359;48.750;9.314;2023-08-21T13:30:41;15.20;;;13.55;;
40675;SDS011;26359;48.750;9.314;2023-08-21T13:33:07;12.80;;;11.77;;
40675;SDS011;26359;48.750;9.314;2023-08-21T13:35:32;11.90;;;10.93;;
40675;SDS011;26359;48.750;9.314;2023-08-21T13:37:58;14.40;;;13.10;;
40675;SDS011;26359;48.750;9.314;2023-08-21T13:40:24;14.65;;;13.35;;
40675;SDS011;26359;48.750;9.314;2023-08-21T13:42:50;15.18;;;14.07;;
40675;SDS011;26359;48.750;9.314;2023-08-21T13:45:16;13.20;;;12.05;;
40675;SDS011;26359;48.750;9.314;2023-08-21T13:47:43;16.38;;;15.23;;
40675;SDS011;26359;48.750;9.314;2023-08-21T13:50:12;22.23;;;20.52;;
40675;SDS011;26359;48.750;9.314;2023-08-21T13:52:39;20.77;;;19.33;;
40675;SDS011;26359;48.750;9.314;2023-08-21T13:55:06;18.67;;;16.83;;
40675;SDS011;26359;48.750;9.314;2023-08-21T13:57:32;23.77;;;21.85;;
40675;SDS011;26359;48.750;9.314;2023-08-21T13:59:58;17.27;;;16.00;;
40675;SDS011;26359;48.750;9.314;2023-08-21T14:02:25;18.38;;;17.15;;
40675;SDS011;26359;48.750;9.314;2023-08-21T14:04:50;26.00;;;24.30;;
40675;SDS011;26359;48.750;9.314;2023-08-21T14:07:16;29.95;;;27.85;;
40675;SDS011;26359;48.750;9.314;2023-08-21T14:09:42;20.92;;;19.23;;
40675;SDS011;26359;48.750;9.314;2023-08-21T14:12:07;20.67;;;19.17;;
40675;SDS011;26359;48.750;9.314;2023-08-21T14:14:34;24.42;;;22.42;;
40675;SDS011;26359;48.750;9.314;2023-08-21T14:17:00;28.20;;;26.30;;
40675;SDS011;26359;48.750;9.314;2023-08-21T14:19:26;21.60;;;20.23;;
40675;SDS011;26359;48.750;9.314;2023-08-21T14:21:52;18.70;;;17.35;;
40675;SDS011;26359;48.750;9.314;2023-08-21T14:24:18;15.60;;;14.18;;
40675;SDS011;26359;48.750;9.314;2023-08-21T14:26:44;23.17;;;21.38;;
40675;SDS011;26359;48.750;9.314;2023-08-21T14:29:09;26.25;;;24.10;;
40675;SDS011;26359;48.750;9.314;2023-08-21T14:31:35;21.08;;;19.50;;
40675;SDS011;26359;48.750;9.314;2023-08-21T14:34:00;26.58;;;24.67;;
40675;SDS011;26359;48.750;9.314;2023-08-21T14:36:26;21.90;;;20.50;;
40675;SDS011;26359;48.750;9.314;2023-08-21T14:38:51;42.95;;;40.45;;
40675;SDS011;26359;48.750;9.314;2023-08-21T14:41:17;19.80;;;18.45;;
40675;SDS011;26359;48.750;9.314;2023-08-21T14:43:43;20.13;;;18.60;;